South Royalton, VT (05068)

4:17 PM EST on February 09, 2016 (GMT -0500)
East Bethel | | Change Station
CLOSE
Current Station
Personal Weather Station
Location: Bethel, VT
Elevation: 561 ft
Nearby Weather Stations

Elev 561 ft 43.87 °N, 72.59 °W | Updated 6 seconds ago

Mostly Cloudy
Mostly Cloudy
28.8 °F
Feels Like 29 °F
N
0.0
Wind Variable Wind from North
Gusts 0.0 mph

Today
High -- | Low -- °F
--% Chance of Precip.
Yesterday
High -- | Low -- °F
Precip. -- in
Pressure 29.59 in
Visibility 10.0 miles
Clouds Mostly Cloudy 3000 ft
Windchill 29 °F
Dew Point 9 °F
Humidity 42%
Rainfall 0.00 in
Snow Depth Not available.
6:57 AM 5:11 PM
New Moon, 2% visible
METAR KLEB 092053Z 00000KT 10SM BKN030 M03/M10 A2956 RMK AO2 SLP020 T10281100 56008
Pressure 29.59 in
Visibility 10.0 miles
Clouds Mostly Cloudy 3000 ft
Windchill 29 °F
Dew Point 9 °F
Humidity 42%
Rainfall 0.00 in
Snow Depth Not available.
6:57 AM 5:11 PM
New Moon, 2% visible
METAR KLEB 092053Z 00000KT 10SM BKN030 M03/M10 A2956 RMK AO2 SLP020 T10281100 56008

10-Day Weather Forecast

Almanac

Astronomy

Feb. 09, 2016 Rise Set
Actual Time
Civil Twilight
Nautical Twilight
Astronomical Twilight
Moon
Length of Visible Light
Length of Day
Tomorrow will be .
, % of the Moon is Illuminated

Today's Extremes

State Highs State Lows

Community

WunderPhotos

Upload Photos

1,891,705 photos uploaded!

WunderBlog® & News

Nearby

Air Quality

  Air Quality AQ Index Pollutant
Not available.

Snow Depth

Station Depth Elevation

Earthquake Activity

City Distance Mag. Time & Date
Minimum magnitude displayed is 2.5.

Coastal Water Temperatures

Place Temperature

Stations

Nearby Weather Stations

Station Location Temp. Windchill Dew Point Humidity Wind Precip. Elev Updated Type
                   

Watches & Warnings

There are currently no watches in effect.